createdAt,value
2022-12-11T00:00:18.590Z,35.38
2022-12-11T00:05:43.958Z,45.37
2022-12-11T00:10:51.378Z,48.10
2022-12-11T00:16:01.101Z,47.77
2022-12-11T00:21:07.886Z,41.85
2022-12-11T00:26:16.878Z,41.35
2022-12-11T00:31:26.400Z,44.60
2022-12-11T00:36:31.871Z,46.83
2022-12-11T00:41:38.018Z,38.30
2022-12-11T00:46:45.945Z,37.90
2022-12-11T00:51:51.399Z,36.15
2022-12-11T00:56:58.302Z,34.70
2022-12-11T01:02:06.411Z,36.47
2022-12-11T01:07:11.715Z,36.87
2022-12-11T01:12:17.259Z,32.38
2022-12-11T01:17:25.372Z,33.13
2022-12-11T01:22:30.625Z,34.97
2022-12-11T01:27:35.963Z,40.83
2022-12-11T01:32:44.040Z,42.93
2022-12-11T01:37:49.292Z,34.28
2022-12-11T01:42:54.609Z,32.80
2022-12-11T01:48:05.349Z,28.17
2022-12-11T01:53:14.911Z,25.95
2022-12-11T01:58:21.689Z,31.90
2022-12-11T02:03:29.592Z,33.55
2022-12-11T02:08:35.079Z,32.05
2022-12-11T02:13:44.099Z,32.27
2022-12-11T02:19:01.668Z,28.25
2022-12-11T02:24:18.464Z,33.97
2022-12-11T02:29:33.291Z,33.65
2022-12-11T02:34:43.932Z,39.08
2022-12-11T02:39:51.251Z,37.20
2022-12-11T02:45:00.762Z,41.10
2022-12-11T02:50:12.619Z,34.10
2022-12-11T02:55:19.450Z,29.98
2022-12-11T03:00:27.281Z,30.60
2022-12-11T03:05:33.217Z,34.87
2022-12-11T03:10:38.550Z,33.20
2022-12-11T03:16:05.821Z,33.97
2022-12-11T03:21:17.341Z,37.13
2022-12-11T03:26:23.794Z,30.58
2022-12-11T03:31:37.350Z,39.23
2022-12-11T03:36:44.574Z,38.83
2022-12-11T03:41:51.875Z,36.10
2022-12-11T03:47:02.723Z,39.67
2022-12-11T03:52:09.070Z,44.60
2022-12-11T03:57:18.983Z,35.33
2022-12-11T04:02:26.889Z,32.28
2022-12-11T04:07:32.230Z,33.53
2022-12-11T04:12:37.481Z,38.05
2022-12-11T04:17:57.764Z,33.78
2022-12-11T04:23:15.770Z,33.70
2022-12-11T04:28:20.968Z,34.38
2022-12-11T04:33:28.844Z,33.70
2022-12-11T04:38:34.099Z,36.78
2022-12-11T04:43:39.482Z,30.98
2022-12-11T04:48:53.785Z,37.37
2022-12-11T04:54:01.886Z,30.88
2022-12-11T04:59:07.396Z,37.10
2022-12-11T05:04:15.289Z,31.98
2022-12-11T05:09:21.523Z,28.80
2022-12-11T05:14:27.577Z,26.23
2022-12-11T05:19:35.584Z,27.50
2022-12-11T05:24:40.838Z,27.00
2022-12-11T05:29:46.534Z,29.27
2022-12-11T05:34:54.522Z,28.15
2022-12-11T05:39:59.806Z,29.27
2022-12-11T05:45:05.129Z,30.00
2022-12-11T05:50:13.494Z,31.90
2022-12-11T05:55:18.950Z,25.27
2022-12-11T06:00:24.192Z,26.73
2022-12-11T06:05:32.225Z,28.47
2022-12-11T06:10:37.582Z,28.52
2022-12-11T06:15:42.937Z,23.77
2022-12-11T06:20:50.864Z,30.30
2022-12-11T06:25:56.153Z,31.75
2022-12-11T06:31:02.177Z,28.40
2022-12-11T06:36:12.408Z,31.05
2022-12-11T06:41:17.747Z,28.97
2022-12-11T06:46:23.510Z,25.08
2022-12-11T06:51:32.851Z,22.10
2022-12-11T06:56:38.124Z,25.23
2022-12-11T07:01:43.663Z,26.13
2022-12-11T07:06:51.973Z,32.13
2022-12-11T07:11:57.312Z,26.80
2022-12-11T07:17:02.949Z,28.92
2022-12-11T07:22:11.144Z,29.43
2022-12-11T07:27:16.653Z,32.20
2022-12-11T07:32:22.261Z,25.97
2022-12-11T07:37:30.175Z,28.55
2022-12-11T07:42:35.979Z,31.55
2022-12-11T07:47:41.894Z,34.27
2022-12-11T07:52:50.324Z,29.55
2022-12-11T07:57:56.114Z,25.33
2022-12-11T08:03:01.577Z,26.40
2022-12-11T08:08:09.628Z,24.38
2022-12-11T08:13:15.433Z,23.90
2022-12-11T08:18:20.747Z,27.90
2022-12-11T08:23:28.591Z,22.57
2022-12-11T08:28:34.187Z,21.42
2022-12-11T08:33:41.612Z,22.42
2022-12-11T08:38:49.836Z,21.00
2022-12-11T08:43:57.586Z,21.25
2022-12-11T08:49:03.137Z,23.00
2022-12-11T08:54:12.739Z,18.92
2022-12-11T08:59:18.505Z,21.90
2022-12-11T09:04:24.538Z,22.03
2022-12-11T09:09:32.530Z,16.90
2022-12-11T09:14:37.881Z,20.83
2022-12-11T09:19:43.127Z,22.13
2022-12-11T09:24:52.823Z,20.20
2022-12-11T09:29:58.442Z,17.13
2022-12-11T09:35:04.625Z,19.88
2022-12-11T09:40:17.201Z,17.23
2022-12-11T09:45:24.071Z,21.02
2022-12-11T09:50:31.424Z,18.33
2022-12-11T09:55:49.063Z,21.27
2022-12-11T10:01:01.842Z,20.02
2022-12-11T10:06:15.521Z,15.10
2022-12-11T10:12:00.404Z,19.00
2022-12-11T10:17:10.785Z,18.80
2022-12-11T10:22:23.563Z,24.57
2022-12-11T10:27:34.619Z,20.67
2022-12-11T10:32:51.962Z,22.30
2022-12-11T10:37:59.508Z,23.60
2022-12-11T10:43:07.567Z,23.48
2022-12-11T10:48:14.328Z,21.93
2022-12-11T10:53:24.372Z,24.08
2022-12-11T10:58:35.444Z,22.37
2022-12-11T11:03:55.373Z,26.67
2022-12-11T11:09:03.155Z,27.90
2022-12-11T11:14:17.702Z,24.47
2022-12-11T11:19:27.394Z,29.15
2022-12-11T11:24:38.086Z,26.33
2022-12-11T11:29:52.800Z,26.17
2022-12-11T11:35:09.303Z,26.77
2022-12-11T11:40:22.214Z,27.43
2022-12-11T11:45:36.107Z,25.48
2022-12-11T11:50:50.539Z,30.43
2022-12-11T11:56:06.522Z,33.22
2022-12-11T12:01:20.677Z,29.98
2022-12-11T12:06:37.546Z,27.07
2022-12-11T12:11:49.562Z,21.95
2022-12-11T12:17:08.442Z,26.47
2022-12-11T12:22:30.836Z,32.65
2022-12-11T12:27:53.029Z,34.15
2022-12-11T12:33:17.678Z,38.13
2022-12-11T12:38:29.718Z,26.30
2022-12-11T12:43:59.984Z,27.53
2022-12-11T12:49:13.558Z,27.63
2022-12-11T12:54:21.315Z,28.60
2022-12-11T12:59:28.823Z,29.43
2022-12-11T13:05:01.746Z,31.63
2022-12-11T13:10:24.599Z,29.40
2022-12-11T13:15:34.138Z,28.05
2022-12-11T13:20:51.226Z,29.35
2022-12-11T13:26:03.968Z,33.27
2022-12-11T13:31:32.965Z,24.17
2022-12-11T13:36:42.775Z,31.90
2022-12-11T13:41:55.167Z,29.60
2022-12-11T13:47:03.172Z,32.53
2022-12-11T13:52:19.778Z,26.43
2022-12-11T13:57:28.498Z,28.48
2022-12-11T14:02:38.388Z,30.17
2022-12-11T14:07:51.748Z,32.35
2022-12-11T14:13:02.377Z,27.05
2022-12-11T14:18:08.391Z,31.73
2022-12-11T14:23:22.128Z,32.65
2022-12-11T14:28:30.652Z,30.20
2022-12-11T14:33:40.260Z,33.70
2022-12-11T14:38:52.220Z,30.25
2022-12-11T14:44:01.685Z,30.80
2022-12-11T14:49:15.059Z,30.38
2022-12-11T14:54:30.060Z,34.10
2022-12-11T14:59:41.717Z,32.45
2022-12-11T15:04:47.101Z,32.95
2022-12-11T15:09:55.110Z,30.47
2022-12-11T15:15:06.063Z,24.73
2022-12-11T15:20:23.404Z,25.90
2022-12-11T15:25:33.260Z,29.42
2022-12-11T15:30:38.605Z,24.40
2022-12-11T15:35:57.137Z,23.93
2022-12-11T15:41:06.217Z,29.00
2022-12-11T15:46:11.670Z,26.57
2022-12-11T15:51:17.676Z,28.50
2022-12-11T15:56:25.635Z,27.45
2022-12-11T16:01:31.044Z,33.50
2022-12-11T16:06:36.883Z,34.10
2022-12-11T16:11:44.932Z,29.87
2022-12-11T16:16:50.348Z,29.50
2022-12-11T16:21:55.586Z,26.15
2022-12-11T16:27:03.699Z,31.37
2022-12-11T16:32:10.087Z,29.38
2022-12-11T16:37:15.790Z,46.50
2022-12-11T16:42:23.694Z,65.18
2022-12-11T16:47:28.945Z,48.33
2022-12-11T16:52:34.934Z,54.17
2022-12-11T16:57:43.083Z,48.20
2022-12-11T17:02:48.436Z,37.07
2022-12-11T17:07:53.993Z,29.52
2022-12-11T17:13:01.902Z,28.75
2022-12-11T17:18:07.249Z,29.50
2022-12-11T17:23:13.537Z,28.30
2022-12-11T17:28:21.456Z,23.40
2022-12-11T17:33:27.110Z,29.70
2022-12-11T17:38:32.703Z,25.10
2022-12-11T17:43:40.611Z,27.60
2022-12-11T17:48:45.887Z,27.55
2022-12-11T17:53:51.203Z,26.27
2022-12-11T17:59:00.733Z,27.48
2022-12-11T18:04:06.738Z,27.50
2022-12-11T18:09:13.534Z,26.20
2022-12-11T18:14:21.974Z,23.83
2022-12-11T18:19:27.969Z,21.97
2022-12-11T18:24:33.435Z,23.35
2022-12-11T18:29:41.320Z,23.25
2022-12-11T18:34:47.112Z,21.23
2022-12-11T18:39:52.555Z,19.02
2022-12-11T18:45:00.544Z,20.20
2022-12-11T18:50:08.252Z,21.75
2022-12-11T18:55:13.942Z,21.13
2022-12-11T19:00:22.670Z,23.53
2022-12-11T19:05:29.681Z,22.67
2022-12-11T19:10:35.012Z,19.73
2022-12-11T19:15:47.219Z,22.17
2022-12-11T19:20:59.328Z,23.52
2022-12-11T19:26:12.254Z,22.03
2022-12-11T19:31:22.489Z,20.23
2022-12-11T19:36:34.924Z,23.83
2022-12-11T19:41:40.253Z,24.98
2022-12-11T19:46:48.295Z,20.35
2022-12-11T19:51:53.900Z,22.77
2022-12-11T19:56:59.206Z,27.63
2022-12-11T20:02:07.128Z,24.77
2022-12-11T20:07:12.490Z,27.90
2022-12-11T20:12:17.786Z,30.77
2022-12-11T20:17:25.739Z,25.13
2022-12-11T20:22:31.153Z,32.60
2022-12-11T20:27:37.424Z,32.50
2022-12-11T20:32:45.786Z,36.67
2022-12-11T20:37:51.127Z,30.50
2022-12-11T20:42:56.483Z,25.90
2022-12-11T20:48:05.190Z,31.10
2022-12-11T20:53:10.916Z,27.10
2022-12-11T20:58:16.203Z,30.38
2022-12-11T21:03:24.208Z,32.75
2022-12-11T21:08:29.728Z,29.33
2022-12-11T21:13:36.844Z,28.75
2022-12-11T21:18:46.617Z,34.40
2022-12-11T21:23:52.451Z,32.65
2022-12-11T21:28:57.753Z,31.90
2022-12-11T21:34:05.937Z,28.57
2022-12-11T21:39:12.273Z,34.28
2022-12-11T21:49:46.060Z,30.92
2022-12-11T21:54:51.792Z,32.05
2022-12-11T21:59:57.081Z,35.47
2022-12-11T22:05:05.515Z,34.60
2022-12-11T22:10:12.044Z,34.13
2022-12-11T22:15:17.333Z,33.28
2022-12-11T22:20:25.207Z,27.45
2022-12-11T22:25:30.675Z,30.97
2022-12-11T22:30:36.056Z,29.92
2022-12-11T22:35:44.009Z,34.47
2022-12-11T22:40:49.266Z,36.97
2022-12-11T22:45:55.216Z,32.50
2022-12-11T22:51:07.469Z,33.20
2022-12-11T22:56:14.732Z,30.25
2022-12-11T23:01:22.848Z,34.40
2022-12-11T23:06:31.084Z,27.27
2022-12-11T23:11:39.137Z,27.48
2022-12-11T23:16:45.220Z,30.83
2022-12-11T23:21:53.083Z,32.50
2022-12-11T23:26:58.356Z,29.83
2022-12-11T23:32:03.695Z,31.17
2022-12-11T23:37:11.527Z,30.10
2022-12-11T23:42:17.090Z,36.67
2022-12-11T23:47:22.659Z,31.10
2022-12-11T23:52:32.117Z,32.10
2022-12-11T23:57:37.613Z,28.67
